Time;durP1;ratioP1;P1;durP2;ratioP2;P2;SDS_P1;SDS_P2;PMS_P1;PMS_P2;Temp;Humidity;BMP_temperature;BMP_pressure;BME280_temperature;BME280_humidity;BME280_pressure;Samples;Min_cycle;Max_cycle;Signal;HPM_P1;HPM_P2
2022/07/05 00:00:33;;;;;;;2.08;1.70;;;;;;;18.12;65.18;101840.84;5012708;28;20410;-76
2022/07/05 00:02:59;;;;;;;3.85;1.70;;;;;;;18.13;65.35;101832.78;5014374;28;20034;-75
2022/07/05 00:05:24;;;;;;;5.65;1.77;;;;;;;18.14;65.48;101834.44;5000322;28;20037;-75
2022/07/05 00:07:50;;;;;;;2.58;1.80;;;;;;;18.15;65.10;101833.41;4999932;28;20026;-75
2022/07/05 00:10:15;;;;;;;4.13;1.67;;;;;;;18.16;65.36;101832.44;4999053;28;20528;-75
2022/07/05 00:12:41;;;;;;;2.78;1.80;;;;;;;18.11;65.26;101839.22;4994457;28;20029;-76
2022/07/05 00:15:07;;;;;;;2.58;1.85;;;;;;;18.04;65.96;101833.88;5003318;28;20034;-75
2022/07/05 00:17:33;;;;;;;2.85;1.50;;;;;;;18.03;65.75;101833.06;4998704;28;20041;-76
2022/07/05 00:19:58;;;;;;;2.45;1.65;;;;;;;18.02;66.19;101827.97;4997270;28;20038;-75
2022/07/05 00:22:23;;;;;;;2.85;2.17;;;;;;;18.01;65.59;101835.06;4998508;28;20057;-75
2022/07/05 00:24:50;;;;;;;4.13;1.65;;;;;;;17.99;65.63;101837.03;5014824;28;20457;-75
2022/07/05 00:27:16;;;;;;;4.57;2.25;;;;;;;17.98;65.69;101838.03;4998991;28;20144;-76
2022/07/05 00:29:41;;;;;;;4.57;2.10;;;;;;;17.96;65.81;101831.34;4999516;28;20289;-75
2022/07/05 00:32:07;;;;;;;4.28;2.10;;;;;;;17.91;65.96;101831.84;4997607;28;20479;-76
2022/07/05 00:34:32;;;;;;;4.32;2.10;;;;;;;17.88;65.89;101827.78;4999358;28;20038;-76
2022/07/05 00:36:58;;;;;;;3.20;1.90;;;;;;;17.85;66.32;101828.13;5001178;28;20034;-76
2022/07/05 00:39:23;;;;;;;3.58;1.95;;;;;;;17.83;66.21;101829.28;5011932;28;20657;-76
2022/07/05 00:41:49;;;;;;;2.75;2.28;;;;;;;17.77;66.58;101832.63;4986234;28;20458;-76
2022/07/05 00:44:14;;;;;;;3.38;1.80;;;;;;;17.74;66.86;101835.59;4999986;28;20092;-75
2022/07/05 00:46:42;;;;;;;4.68;2.03;;;;;;;17.71;66.53;101829.72;4983972;28;20029;-76
2022/07/05 00:49:08;;;;;;;2.67;1.98;;;;;;;17.70;66.75;101828.09;4979906;28;20058;-76
2022/07/05 00:51:36;;;;;;;4.32;2.42;;;;;;;17.66;66.74;101824.19;4999112;28;20522;-75
2022/07/05 00:54:05;;;;;;;6.35;2.30;;;;;;;17.65;66.71;101832.22;4998344;28;20034;-75
2022/07/05 00:56:30;;;;;;;3.80;2.00;;;;;;;17.63;66.68;101836.84;4998233;28;20034;-75
2022/07/05 00:58:56;;;;;;;6.03;2.45;;;;;;;17.61;66.69;101844.91;4999671;28;20426;-73
2022/07/05 01:01:21;;;;;;;3.38;1.90;;;;;;;17.60;66.96;101843.28;4982238;28;20678;-75
2022/07/05 01:03:47;;;;;;;3.60;2.08;;;;;;;17.58;67.08;101845.25;4996509;28;20042;-77
2022/07/05 01:06:13;;;;;;;4.03;2.08;;;;;;;17.57;67.46;101840.19;5012483;28;20493;-76
2022/07/05 01:08:40;;;;;;;5.82;1.90;;;;;;;17.47;68.37;101849.09;4995734;28;20037;-76
2022/07/05 01:11:07;;;;;;;3.67;2.28;;;;;;;17.38;69.05;101838.88;4997663;28;20026;-75
2022/07/05 01:13:34;;;;;;;5.97;2.92;;;;;;;17.29;69.60;101845.97;4996215;28;20038;-76
2022/07/05 01:16:01;;;;;;;4.50;2.28;;;;;;;17.28;69.65;101842.53;4997803;28;20678;-75
2022/07/05 01:18:27;;;;;;;5.60;2.38;;;;;;;17.27;69.35;101842.69;4997401;28;20037;-76
2022/07/05 01:20:53;;;;;;;5.72;3.90;;;;;;;17.22;69.81;101847.69;4999461;28;20030;-76
2022/07/05 01:23:19;;;;;;;6.47;3.08;;;;;;;17.11;70.58;101844.44;4997909;28;20041;-76
2022/07/05 01:25:47;;;;;;;4.97;2.60;;;;;;;17.03;71.09;101844.50;4984168;28;20623;-76
2022/07/05 01:28:12;;;;;;;8.10;2.58;;;;;;;16.97;71.25;101842.59;4999934;28;20056;-75
2022/07/05 01:30:39;;;;;;;6.13;2.45;;;;;;;16.94;71.57;101850.78;4995386;28;20561;-75
2022/07/05 01:33:06;;;;;;;4.97;2.38;;;;;;;16.91;71.58;101844.09;5000845;28;20436;-75
2022/07/05 01:35:31;;;;;;;4.00;2.72;;;;;;;16.88;71.44;101843.63;4982164;28;20045;-76
2022/07/05 01:37:57;;;;;;;5.32;3.85;;;;;;;16.83;71.57;101840.69;5014913;28;20042;-76
2022/07/05 01:40:22;;;;;;;6.15;3.42;;;;;;;16.79;71.74;101848.06;4997515;28;20034;-76
2022/07/05 01:42:48;;;;;;;7.28;3.10;;;;;;;16.80;71.95;101839.22;4998142;28;20034;-76
2022/07/05 01:48:00;;;;;;;3.03;2.72;;;;;;;16.90;71.17;101842.44;4999455;28;20037;-75
2022/07/05 01:50:28;;;;;;;3.22;2.53;;;;;;;16.97;70.56;101836.50;4998769;28;20055;-75
2022/07/05 01:52:58;;;;;;;3.45;2.50;;;;;;;17.02;69.95;101835.00;4999674;28;20360;-77
2022/07/05 01:55:24;;;;;;;6.68;3.33;;;;;;;17.05;70.06;101834.66;4998014;28;20041;-76
2022/07/05 01:57:50;;;;;;;4.07;2.67;;;;;;;17.07;69.95;101835.31;5009480;28;20404;-74
2022/07/05 02:00:15;;;;;;;4.93;2.47;;;;;;;17.10;69.57;101828.91;4982037;28;20041;-74
2022/07/05 02:02:42;;;;;;;7.10;2.40;;;;;;;17.08;69.83;101844.81;4998762;28;20034;-76
2022/07/05 02:05:08;;;;;;;3.95;2.50;;;;;;;17.02;70.19;101842.88;4983891;28;20037;-76
2022/07/05 02:07:34;;;;;;;4.55;2.75;;;;;;;16.99;70.55;101851.09;4995386;28;20477;-76
2022/07/05 02:10:00;;;;;;;6.15;2.40;;;;;;;16.95;70.53;101835.88;4997491;28;20041;-77
2022/07/05 02:12:26;;;;;;;3.97;2.22;;;;;;;16.86;71.60;101837.75;4994855;28;20034;-76
2022/07/05 02:14:52;;;;;;;2.78;1.70;;;;;;;16.84;71.19;101843.16;4998538;28;20108;-76
2022/07/05 02:17:19;;;;;;;5.47;2.30;;;;;;;16.83;71.20;101843.31;4981298;28;20045;-76
2022/07/05 02:19:49;;;;;;;5.63;2.30;;;;;;;16.79;71.45;101842.00;4977941;28;20033;-76
2022/07/05 02:22:16;;;;;;;3.58;2.55;;;;;;;16.76;71.59;101837.91;5007527;28;20072;-75
2022/07/05 02:24:42;;;;;;;4.60;2.60;;;;;;;16.77;70.95;101833.50;4996593;28;20029;-75
2022/07/05 02:27:20;;;;;;;4.68;2.45;;;;;;;16.80;70.54;101836.59;4994680;28;20026;-76
2022/07/05 02:29:47;;;;;;;3.63;2.40;;;;;;;16.81;70.40;101835.59;4997102;28;20030;-74
2022/07/05 02:32:14;;;;;;;4.07;2.55;;;;;;;16.82;70.27;101836.41;4993223;28;20088;-75
2022/07/05 02:34:39;;;;;;;3.53;2.13;;;;;;;16.83;70.17;101838.88;4996645;28;20029;-76
2022/07/05 02:37:05;;;;;;;5.05;2.88;;;;;;;16.79;70.76;101840.19;4989268;28;20089;-75
2022/07/05 02:39:32;;;;;;;7.47;2.60;;;;;;;16.72;71.42;101847.09;5008606;28;20026;-76
2022/07/05 02:41:59;;;;;;;3.92;2.30;;;;;;;16.60;72.37;101841.44;4989001;28;20117;-76
2022/07/05 02:44:25;;;;;;;7.22;3.60;;;;;;;16.58;72.79;101848.63;4995545;28;20034;-76
2022/07/05 02:46:51;;;;;;;6.43;2.33;;;;;;;16.48;73.37;101845.41;4997591;28;20038;-76
2022/07/05 02:49:17;;;;;;;4.45;2.53;;;;;;;16.44;73.15;101839.69;4997131;28;20041;-76
2022/07/05 02:51:43;;;;;;;3.83;2.72;;;;;;;16.45;73.04;101841.31;4996411;28;20050;-76
2022/07/05 02:54:10;;;;;;;4.05;2.40;;;;;;;16.48;72.21;101841.00;4996609;28;20039;-76
2022/07/05 02:56:37;;;;;;;5.20;2.78;;;;;;;16.50;71.81;101840.81;4998297;28;20394;-76
2022/07/05 02:59:05;;;;;;;5.35;2.63;;;;;;;16.51;71.46;101842.44;4999337;28;22846;-76
2022/07/05 03:01:34;;;;;;;3.70;2.50;;;;;;;16.52;71.28;101855.38;4996545;28;20029;-75
2022/07/05 03:04:03;;;;;;;4.20;2.30;;;;;;;16.49;71.32;101853.09;4991512;28;20045;-75
2022/07/05 03:06:30;;;;;;;3.45;2.42;;;;;;;16.45;71.83;101854.41;4995290;28;20110;-76
2022/07/05 03:08:57;;;;;;;2.85;2.20;;;;;;;16.44;71.26;101850.16;4997081;28;20065;-75
2022/07/05 03:11:22;;;;;;;4.65;2.47;;;;;;;16.42;71.64;101849.50;4981013;28;20165;-76
2022/07/05 03:13:48;;;;;;;5.57;2.60;;;;;;;16.40;71.91;101861.13;4982873;28;20026;-76
2022/07/05 03:16:14;;;;;;;6.35;2.47;;;;;;;16.38;71.97;101856.06;5015745;28;20022;-74
2022/07/05 03:18:40;;;;;;;3.28;2.30;;;;;;;16.35;72.05;101856.41;5001887;28;20033;-75
2022/07/05 03:21:07;;;;;;;3.65;2.30;;;;;;;16.31;72.01;101857.72;4981076;28;20034;-74
2022/07/05 03:23:34;;;;;;;5.35;2.88;;;;;;;16.27;72.15;101853.81;5000374;28;20080;-77
2022/07/05 03:25:59;;;;;;;4.97;2.30;;;;;;;16.21;72.63;101850.06;5003463;28;20533;-74
2022/07/05 03:28:25;;;;;;;7.28;2.72;;;;;;;16.19;72.69;101862.50;5011011;28;20025;-76
2022/07/05 03:30:53;;;;;;;5.82;2.03;;;;;;;16.15;73.01;101855.97;5014383;28;20030;-75
2022/07/05 03:33:21;;;;;;;4.05;2.42;;;;;;;16.13;73.22;101855.31;5000158;28;20036;-77
2022/07/05 03:35:47;;;;;;;5.30;2.50;;;;;;;16.11;73.43;101854.69;5002899;28;20026;-76
2022/07/05 03:38:15;;;;;;;8.05;2.35;;;;;;;16.08;73.12;101862.84;4988917;28;20056;-76
2022/07/05 03:40:42;;;;;;;6.57;2.47;;;;;;;16.03;73.31;101863.38;4985733;28;20126;-77
2022/07/05 03:43:08;;;;;;;4.65;2.38;;;;;;;16.00;73.40;101863.69;4985705;28;20084;-77
2022/07/05 03:45:36;;;;;;;4.97;2.55;;;;;;;16.02;73.15;101863.53;4987177;28;20525;-77
2022/07/05 03:48:03;;;;;;;4.32;2.35;;;;;;;16.01;72.93;101854.88;5003779;28;20040;-76
2022/07/05 03:50:30;;;;;;;4.07;2.53;;;;;;;15.98;72.98;101859.63;5001471;28;20056;-77
2022/07/05 03:52:55;;;;;;;4.78;2.40;;;;;;;15.90;73.64;101857.81;5001931;28;20323;-76
2022/07/05 03:55:22;;;;;;;3.85;2.63;;;;;;;15.83;74.34;101862.06;5000715;28;20097;-76
2022/07/05 03:57:47;;;;;;;2.78;2.20;;;;;;;15.83;74.31;101867.31;4998742;28;20038;-76
2022/07/05 04:00:14;;;;;;;3.70;2.58;;;;;;;15.83;73.74;101864.69;4989301;28;20441;-75
2022/07/05 04:02:45;;;;;;;3.03;2.38;;;;;;;15.83;73.36;101865.50;4982912;28;20483;-77
2022/07/05 04:05:13;;;;;;;4.72;2.15;;;;;;;15.83;73.38;101862.88;5001954;28;20177;-75
2022/07/05 04:07:52;;;;;;;4.90;2.30;;;;;;;15.85;73.44;101874.00;4984980;28;20509;-76
2022/07/05 04:10:22;;;;;;;4.97;2.30;;;;;;;15.84;73.67;101879.38;5003090;28;20045;-76
2022/07/05 04:12:48;;;;;;;5.07;2.17;;;;;;;15.82;73.75;101876.13;5000359;28;20030;-75
2022/07/05 04:15:14;;;;;;;3.85;2.47;;;;;;;15.81;73.88;101866.66;5005576;28;20541;-76
2022/07/05 04:17:54;;;;;;;3.22;2.20;;;;;;;15.80;73.89;101871.06;5000170;28;20406;-77
2022/07/05 04:20:24;;;;;;;4.88;2.60;;;;;;;15.80;73.93;101872.84;5000245;28;20116;-75
2022/07/05 04:22:50;;;;;;;3.78;2.50;;;;;;;15.77;74.01;101880.06;4985837;28;20326;-77
2022/07/05 04:25:18;;;;;;;7.20;2.97;;;;;;;15.75;74.48;101876.78;4981734;28;20107;-77
2022/07/05 04:27:53;;;;;;;4.00;2.67;;;;;;;15.70;74.93;101880.84;4984635;28;20041;-77
2022/07/05 04:30:21;;;;;;;6.18;3.15;;;;;;;15.65;75.36;101885.72;5001886;28;20184;-76
2022/07/05 04:32:46;;;;;;;8.02;3.47;;;;;;;15.61;75.87;101887.03;4993229;28;20040;-77
2022/07/05 04:35:12;;;;;;;5.57;2.95;;;;;;;15.59;75.92;101889.81;5003113;28;20029;-76
2022/07/05 04:37:40;;;;;;;5.95;2.92;;;;;;;15.60;76.16;101890.66;5000780;28;20087;-76
2022/07/05 04:40:08;;;;;;;10.65;3.72;;;;;;;15.63;75.91;101891.13;5017765;28;20184;-76
2022/07/05 04:42:34;;;;;;;3.60;2.72;;;;;;;15.68;75.70;101888.03;5013363;28;20626;-76
2022/07/05 04:45:00;;;;;;;5.03;3.08;;;;;;;15.72;75.60;101895.38;5001570;28;20049;-76
2022/07/05 04:47:26;;;;;;;5.30;2.97;;;;;;;15.77;75.29;101892.31;4998277;28;20041;-76
2022/07/05 04:49:53;;;;;;;5.68;3.33;;;;;;;15.82;75.05;101900.47;4997063;28;20076;-76
2022/07/05 04:52:19;;;;;;;6.57;2.97;;;;;;;15.88;74.65;101899.00;4999170;28;20052;-78
2022/07/05 04:54:44;;;;;;;8.13;3.20;;;;;;;15.92;74.33;101901.13;4997060;28;20494;-77
2022/07/05 04:57:10;;;;;;;7.00;4.00;;;;;;;15.98;74.56;101906.69;4997200;28;20033;-76
2022/07/05 04:59:35;;;;;;;5.03;3.30;;;;;;;16.01;74.84;101909.81;5011254;28;20153;-76
2022/07/05 05:02:01;;;;;;;6.85;3.33;;;;;;;16.05;74.45;101903.25;4995492;28;20037;-76
2022/07/05 05:04:26;;;;;;;4.55;3.53;;;;;;;16.09;74.63;101901.13;4996835;28;20038;-76
2022/07/05 05:06:52;;;;;;;5.30;3.65;;;;;;;16.11;75.00;101910.44;5001487;28;20483;-76
2022/07/05 05:09:17;;;;;;;7.03;3.30;;;;;;;16.16;74.50;101909.91;4998367;28;20088;-76
2022/07/05 05:11:42;;;;;;;6.70;3.45;;;;;;;16.20;74.70;101907.78;4999303;28;20501;-76
2022/07/05 05:14:08;;;;;;;6.50;4.20;;;;;;;16.30;74.29;101911.88;4996431;28;20387;-76
2022/07/05 05:16:34;;;;;;;7.97;4.10;;;;;;;16.37;74.10;101912.03;4995140;28;20042;-76
2022/07/05 05:18:59;;;;;;;5.18;3.80;;;;;;;16.49;73.63;101915.09;4995659;28;20038;-76
2022/07/05 05:21:25;;;;;;;5.82;3.50;;;;;;;16.59;73.45;101909.66;4983752;28;20443;-76
2022/07/05 05:23:50;;;;;;;5.20;3.55;;;;;;;16.71;72.88;101905.72;4995068;28;20502;-76
2022/07/05 05:26:16;;;;;;;4.40;3.42;;;;;;;16.84;72.43;101918.28;4999367;28;20045;-76
2022/07/05 05:28:41;;;;;;;7.95;3.95;;;;;;;16.99;71.50;101913.13;5010579;28;20041;-76
2022/07/05 05:31:07;;;;;;;6.00;3.78;;;;;;;16.99;70.95;101911.34;4994249;28;20034;-76
2022/07/05 05:33:32;;;;;;;6.50;3.92;;;;;;;17.20;70.09;101910.75;4998270;28;20688;-76
2022/07/05 05:35:58;;;;;;;7.57;3.67;;;;;;;17.35;69.85;101918.69;4998990;28;20041;-76
2022/07/05 05:38:23;;;;;;;8.75;3.88;;;;;;;17.53;69.47;101918.38;4996388;28;20037;-76
2022/07/05 05:40:49;;;;;;;7.18;3.72;;;;;;;17.70;69.44;101922.50;4994894;28;20034;-76
2022/07/05 05:43:14;;;;;;;5.63;3.97;;;;;;;17.96;68.28;101915.31;4995427;28;20026;-76
2022/07/05 05:45:40;;;;;;;5.35;4.05;;;;;;;18.09;67.91;101923.38;4998711;28;20513;-77
2022/07/05 05:48:05;;;;;;;7.18;3.85;;;;;;;18.28;67.35;101924.66;4993589;28;20044;-77
2022/07/05 05:50:33;;;;;;;14.68;4.90;;;;;;;18.42;66.01;101916.00;4994182;28;20498;-77
2022/07/05 05:52:59;;;;;;;6.25;3.30;;;;;;;18.51;65.85;101926.41;4999297;28;20038;-76
2022/07/05 05:55:27;;;;;;;6.15;4.05;;;;;;;18.52;65.53;101920.16;4995218;28;20033;-77
2022/07/05 05:57:53;;;;;;;4.65;3.50;;;;;;;18.66;65.55;101929.81;4999410;28;20120;-76
2022/07/05 06:00:20;;;;;;;7.15;4.20;;;;;;;18.93;65.01;101931.03;4995501;28;20666;-76
2022/07/05 06:02:47;;;;;;;6.70;2.88;;;;;;;19.22;63.96;101926.69;4997741;28;20042;-76
2022/07/05 06:05:13;;;;;;;5.75;3.00;;;;;;;19.55;63.32;101934.09;4995846;28;20064;-76
2022/07/05 06:07:50;;;;;;;5.82;3.90;;;;;;;19.83;62.13;101926.25;5008859;28;20494;-76
2022/07/05 06:10:18;;;;;;;7.40;3.13;;;;;;;20.11;61.71;101926.28;4996057;28;20033;-76
2022/07/05 06:12:43;;;;;;;7.57;3.50;;;;;;;20.28;60.62;101934.69;4994210;28;20509;-76
2022/07/05 06:15:09;;;;;;;3.80;3.03;;;;;;;20.64;59.04;101938.16;4979180;28;20124;-76
2022/07/05 06:17:36;;;;;;;11.00;4.22;;;;;;;20.78;56.96;101935.41;4998077;28;20034;-76
2022/07/05 06:20:05;;;;;;;5.45;3.22;;;;;;;20.99;55.69;101937.09;4996381;28;20038;-77
2022/07/05 06:22:31;;;;;;;6.53;3.65;;;;;;;21.17;54.59;101938.34;4976557;28;20494;-77
2022/07/05 06:24:56;;;;;;;6.93;2.83;;;;;;;21.35;53.79;101930.69;4982961;28;20038;-77
2022/07/05 06:27:22;;;;;;;4.28;3.47;;;;;;;21.57;52.06;101938.47;4978819;28;20490;-77
2022/07/05 06:29:47;;;;;;;4.72;3.13;;;;;;;21.86;51.33;101939.09;4997355;28;20394;-76
2022/07/05 06:32:13;;;;;;;8.23;2.90;;;;;;;21.94;50.92;101939.72;4996559;28;20023;-77
2022/07/05 06:34:38;;;;;;;4.55;2.60;;;;;;;22.11;50.82;101933.97;5010796;28;20048;-76
2022/07/05 06:37:04;;;;;;;4.32;2.38;;;;;;;22.30;50.29;101935.81;4998270;28;20041;-77
2022/07/05 06:39:29;;;;;;;5.75;2.45;;;;;;;22.60;49.90;101940.59;4998673;28;20501;-77
2022/07/05 06:41:55;;;;;;;7.07;2.35;;;;;;;22.83;49.33;101934.84;4998812;28;20068;-77
2022/07/05 06:44:20;;;;;;;5.70;2.67;;;;;;;22.92;49.43;101940.66;4997238;28;20038;-77
2022/07/05 06:46:46;;;;;;;7.47;3.33;;;;;;;23.08;48.59;101940.22;5001104;28;20080;-76
2022/07/05 06:49:11;;;;;;;5.35;2.67;;;;;;;23.38;48.10;101939.63;4999292;28;20038;-77
2022/07/05 06:51:36;;;;;;;5.95;2.53;;;;;;;23.65;47.43;101942.09;5003688;28;20088;-77
2022/07/05 06:54:02;;;;;;;4.90;2.58;;;;;;;24.04;46.65;101942.81;5012842;28;20537;-77
2022/07/05 06:56:27;;;;;;;10.07;2.10;;;;;;;23.83;47.08;101944.81;5002542;28;20033;-77
2022/07/05 06:58:53;;;;;;;7.97;2.80;;;;;;;24.17;45.69;101936.59;5000624;28;20037;-76
2022/07/05 07:01:18;;;;;;;4.95;2.40;;;;;;;24.53;44.70;101940.28;5019042;28;20026;-77
2022/07/05 07:03:44;;;;;;;8.07;2.40;;;;;;;24.90;43.63;101943.69;4999752;28;20488;-77
2022/07/05 07:06:09;;;;;;;6.30;2.30;;;;;;;25.01;43.31;101945.56;5000443;28;20449;-77
2022/07/05 07:11:19;;;;;;;4.20;1.80;;;;;;;25.35;42.93;101940.63;4998052;28;20048;-78
2022/07/05 07:13:44;;;;;;;7.18;2.40;;;;;;;25.72;42.53;101943.13;4987578;28;20034;-78
2022/07/05 07:16:09;;;;;;;6.10;1.92;;;;;;;25.87;40.03;101944.53;5001056;28;20033;-77
2022/07/05 07:18:35;;;;;;;4.05;1.85;;;;;;;25.97;39.66;101942.13;4982750;28;20448;-77
2022/07/05 07:21:01;;;;;;;3.50;1.52;;;;;;;25.88;39.14;101940.81;4985598;28;20042;-78
2022/07/05 07:23:26;;;;;;;11.63;2.25;;;;;;;25.35;40.64;101947.78;4999067;28;20026;-77
2022/07/05 07:25:52;;;;;;;5.10;2.42;;;;;;;25.40;39.88;101945.28;4983819;28;20446;-77
2022/07/05 07:28:17;;;;;;;7.50;2.88;;;;;;;25.10;40.65;101946.09;4998919;28;20446;-77
2022/07/05 07:30:43;;;;;;;6.22;1.80;;;;;;;25.57;41.57;101945.41;5001713;28;20045;-78
2022/07/05 07:33:08;;;;;;;3.47;1.60;;;;;;;26.17;40.54;101941.78;5000110;28;20033;-77
2022/07/05 07:35:34;;;;;;;3.78;2.08;;;;;;;26.65;39.87;101951.28;5001446;28;20033;-77
2022/07/05 07:37:59;;;;;;;2.85;1.75;;;;;;;26.49;38.91;101949.34;4995325;28;20031;-77
2022/07/05 07:40:24;;;;;;;2.10;1.50;;;;;;;25.74;39.43;101946.34;4999336;28;20099;-77
2022/07/05 07:42:50;;;;;;;5.80;1.65;;;;;;;25.35;40.12;101961.06;4999223;28;20366;-77
2022/07/05 07:45:15;;;;;;;2.90;1.40;;;;;;;25.64;41.10;101960.22;5016047;28;20052;-77
2022/07/05 07:47:41;;;;;;;3.35;1.80;;;;;;;26.26;40.26;101956.31;5000083;28;20099;-77
2022/07/05 07:50:07;;;;;;;3.97;1.67;;;;;;;26.76;38.36;101960.25;5014930;28;20045;-77
2022/07/05 07:52:37;;;;;;;3.53;1.10;;;;;;;27.22;36.49;101953.13;4983278;28;20464;-77
2022/07/05 07:55:02;;;;;;;3.13;1.50;;;;;;;26.92;37.10;101956.84;4984233;28;20056;-77
2022/07/05 07:57:28;;;;;;;4.10;1.27;;;;;;;26.89;38.65;101959.97;5001921;28;20061;-78
2022/07/05 07:59:54;;;;;;;5.97;1.70;;;;;;;26.84;38.34;101949.25;4999650;28;20076;-76
2022/07/05 08:02:21;;;;;;;2.03;1.23;;;;;;;26.89;38.33;101949.34;5000241;28;20083;-77
2022/07/05 08:04:47;;;;;;;2.70;1.35;;;;;;;26.77;39.00;101959.25;5013868;28;20510;-77
2022/07/05 08:07:13;;;;;;;5.75;1.70;;;;;;;26.63;38.81;101960.53;4980853;28;20073;-77
2022/07/05 08:09:38;;;;;;;4.25;1.52;;;;;;;26.48;39.63;101959.16;4999011;28;20192;-77
2022/07/05 08:12:05;;;;;;;3.40;1.65;;;;;;;26.07;39.53;101960.97;5000917;28;20034;-77
2022/07/05 08:14:31;;;;;;;5.63;1.50;;;;;;;26.12;39.53;101966.38;4996908;28;20032;-77
2022/07/05 08:16:58;;;;;;;2.92;1.27;;;;;;;26.09;39.43;101961.53;4995940;28;20038;-77
2022/07/05 08:22:08;;;;;;;2.67;1.00;;;;;;;27.16;37.53;101954.91;4999372;28;20065;-77
2022/07/05 08:24:34;;;;;;;5.22;1.30;;;;;;;26.54;38.10;101955.56;4998411;28;20457;-77
2022/07/05 08:27:00;;;;;;;7.43;1.95;;;;;;;26.20;39.87;101957.22;4997198;28;20038;-78
2022/07/05 08:29:25;;;;;;;3.42;1.00;;;;;;;26.65;38.84;101961.13;4993813;28;20505;-77
2022/07/05 08:31:51;;;;;;;2.35;1.15;;;;;;;26.96;37.65;101965.97;5002393;28;20463;-77
2022/07/05 08:34:20;;;;;;;2.25;1.38;;;;;;;26.78;36.44;101963.50;4994976;28;20432;-76
2022/07/05 08:36:46;;;;;;;4.03;1.48;;;;;;;26.46;36.29;101957.78;5013840;28;20034;-77
2022/07/05 08:39:13;;;;;;;5.32;1.40;;;;;;;26.22;36.51;101961.28;5001713;28;20030;-77
2022/07/05 08:41:41;;;;;;;2.92;0.85;;;;;;;26.73;37.24;101958.06;4999448;28;20433;-76
2022/07/05 08:44:07;;;;;;;2.65;1.00;;;;;;;26.58;37.87;101950.59;4999678;28;20054;-77
2022/07/05 08:46:38;;;;;;;2.53;1.23;;;;;;;26.39;39.00;101961.38;4997607;28;20050;-78
2022/07/05 08:49:04;;;;;;;4.40;1.20;;;;;;;25.71;39.78;101964.59;4979360;28;20045;-77
2022/07/05 08:51:33;;;;;;;1.95;1.10;;;;;;;25.83;39.50;101971.53;5001878;28;20041;-78
2022/07/05 08:53:59;;;;;;;3.60;1.08;;;;;;;25.76;38.74;101973.50;4978831;28;20041;-78
2022/07/05 08:56:25;;;;;;;2.05;0.80;;;;;;;25.56;39.94;101965.88;4997641;28;20034;-77
2022/07/05 08:58:50;;;;;;;1.35;0.70;;;;;;;25.55;39.64;101968.75;5001206;28;20504;-77
2022/07/05 09:01:16;;;;;;;4.65;0.85;;;;;;;26.00;38.85;101958.41;4995630;28;20053;-77
2022/07/05 09:03:46;;;;;;;2.45;1.08;;;;;;;25.55;39.07;101971.41;5011839;28;20422;-78
2022/07/05 09:06:15;;;;;;;1.75;0.88;;;;;;;25.36;38.30;101971.47;4996944;28;20088;-78
2022/07/05 09:08:41;;;;;;;4.05;0.95;;;;;;;25.71;38.44;101968.09;4995691;28;20045;-77
2022/07/05 09:11:09;;;;;;;2.47;1.30;;;;;;;26.65;37.73;101964.56;4997394;28;20037;-77
2022/07/05 09:13:37;;;;;;;2.22;1.17;;;;;;;27.30;36.42;101957.28;4981151;28;20042;-77
2022/07/05 09:16:03;;;;;;;4.30;1.10;;;;;;;27.85;35.82;101961.88;4998438;28;20030;-77
2022/07/05 09:18:45;;;;;;;2.70;1.10;;;;;;;26.93;35.57;101971.75;4997790;28;20475;-78
2022/07/05 09:21:14;;;;;;;3.17;1.60;;;;;;;25.98;36.90;101963.16;4999773;28;20036;-78
2022/07/05 09:23:41;;;;;;;2.42;1.38;;;;;;;25.83;36.95;101971.53;5007435;28;20049;-77
2022/07/05 09:26:06;;;;;;;5.30;1.42;;;;;;;26.25;36.81;101962.66;4996569;28;20077;-77
2022/07/05 09:28:32;;;;;;;6.97;1.25;;;;;;;27.05;35.94;101962.91;4996958;28;20026;-77
2022/07/05 09:30:57;;;;;;;5.07;1.00;;;;;;;27.28;35.66;101968.16;4996384;28;20045;-77
2022/07/05 09:33:22;;;;;;;2.80;1.27;;;;;;;27.39;35.94;101955.84;4978495;28;20057;-77
2022/07/05 09:35:57;;;;;;;2.78;1.38;;;;;;;27.31;36.08;101957.06;4980081;28;20089;-77
2022/07/05 09:38:26;;;;;;;4.85;1.63;;;;;;;27.38;35.75;101963.00;5000651;28;20109;-78
2022/07/05 09:40:54;;;;;;;3.97;1.50;;;;;;;27.67;35.34;101954.13;4994716;28;20044;-78
2022/07/05 09:43:22;;;;;;;5.30;1.52;;;;;;;27.44;35.54;101957.78;4997241;28;20037;-76
2022/07/05 09:46:04;;;;;;;4.75;1.63;;;;;;;27.56;35.80;101959.31;4999724;28;20088;-78
2022/07/05 09:48:31;;;;;;;3.60;1.63;;;;;;;27.54;36.28;101957.94;4976743;28;20033;-79
2022/07/05 09:51:11;;;;;;;4.50;1.80;;;;;;;27.68;34.68;101955.75;5000224;28;20541;-77
2022/07/05 09:53:50;;;;;;;3.17;1.08;;;;;;;27.71;35.31;101947.28;5010527;28;20446;-77
2022/07/05 09:56:17;;;;;;;5.88;1.60;;;;;;;28.10;34.85;101948.13;4995021;28;20038;-78
2022/07/05 09:58:43;;;;;;;7.43;2.15;;;;;;;27.90;36.16;101954.00;4997547;28;20026;-77
2022/07/05 10:01:25;;;;;;;9.50;1.70;;;;;;;27.59;34.89;101955.34;4998215;28;20476;-77
2022/07/05 10:03:52;;;;;;;4.70;1.40;;;;;;;26.99;35.54;101962.84;5011602;28;20096;-75
2022/07/05 10:06:19;;;;;;;4.60;1.40;;;;;;;26.33;36.93;101964.16;4999588;28;20042;-77
2022/07/05 10:08:44;;;;;;;3.78;1.60;;;;;;;26.36;36.82;101956.53;4983039;28;20037;-79
2022/07/05 10:11:10;;;;;;;7.45;1.50;;;;;;;26.46;37.03;101961.25;4996142;28;20037;-77
2022/07/05 10:13:36;;;;;;;3.25;1.23;;;;;;;26.51;36.82;101957.88;4998891;28;20030;-81
2022/07/05 10:16:02;;;;;;;6.07;1.60;;;;;;;26.80;35.66;101948.94;5010485;28;20298;-78
2022/07/05 10:18:31;;;;;;;6.03;1.85;;;;;;;27.13;35.54;101955.38;4996118;28;20033;-80
2022/07/05 10:21:01;;;;;;;5.03;2.20;;;;;;;27.34;35.29;101950.44;4993933;28;20065;-78
2022/07/05 10:23:28;;;;;;;2.63;1.55;;;;;;;27.64;33.19;101944.78;4995718;28;20034;-78
2022/07/05 10:25:54;;;;;;;7.20;1.48;;;;;;;28.00;33.76;101953.31;4997388;28;20042;-79
2022/07/05 10:28:21;;;;;;;4.35;1.80;;;;;;;27.50;35.42;101954.13;4984268;28;20037;-78
2022/07/05 10:30:50;;;;;;;6.55;2.60;;;;;;;27.22;34.68;101952.31;5010921;28;20056;-78
2022/07/05 10:33:20;;;;;;;2.60;1.10;;;;;;;27.09;34.82;101958.75;4998918;28;20042;-78
2022/07/05 10:35:47;;;;;;;5.75;1.63;;;;;;;26.72;36.01;101956.47;4982285;28;20395;-81
2022/07/05 10:38:13;;;;;;;9.10;1.63;;;;;;;27.04;36.72;101956.00;4996921;28;20543;-80
2022/07/05 10:40:46;;;;;;;4.35;1.10;;;;;;;26.45;36.84;101964.97;5012451;28;20038;-76
2022/07/05 10:43:14;;;;;;;2.72;1.40;;;;;;;25.94;37.02;101966.50;4999031;28;20526;-79
2022/07/05 10:45:46;;;;;;;2.38;0.90;;;;;;;25.76;37.67;101965.53;4976965;28;20044;-78
2022/07/05 10:48:38;;;;;;;2.88;1.23;;;;;;;25.87;35.61;101966.56;5007295;28;20042;-78
2022/07/05 10:51:15;;;;;;;1.40;0.90;;;;;;;26.73;35.19;101958.06;4996566;28;20482;-78
2022/07/05 10:53:41;;;;;;;15.48;2.20;;;;;;;26.97;34.80;101962.28;4994564;28;20519;-78
2022/07/05 10:56:06;;;;;;;2.92;1.20;;;;;;;27.19;34.80;101954.41;4978885;28;20049;-77
2022/07/05 10:58:37;;;;;;;5.20;1.20;;;;;;;27.55;33.60;101955.03;4980036;28;20030;-77
2022/07/05 11:01:11;;;;;;;3.10;1.70;;;;;;;27.85;33.67;101953.88;4998464;28;20529;-77
2022/07/05 11:03:40;;;;;;;3.03;1.30;;;;;;;27.52;33.11;101954.69;4999134;28;20034;-77
2022/07/05 11:06:10;;;;;;;2.85;1.10;;;;;;;27.68;34.31;101955.75;4991020;28;20084;-79
2022/07/05 11:09:00;;;;;;;4.63;0.90;;;;;;;27.35;33.56;101947.53;5010482;28;20068;-79
2022/07/05 11:11:31;;;;;;;2.50;0.90;;;;;;;27.13;32.86;101951.91;4995156;28;20479;-78
2022/07/05 11:13:59;;;;;;;4.38;1.20;;;;;;;27.07;32.04;101955.50;4981944;28;20045;-78
2022/07/05 11:16:36;;;;;;;1.60;0.98;;;;;;;26.82;32.89;101955.84;4996154;28;20076;-79
2022/07/05 11:19:12;;;;;;;7.32;0.98;;;;;;;26.67;34.09;101962.47;4997973;28;20064;-78
2022/07/05 11:22:03;;;;;;;2.65;1.42;;;;;;;26.53;34.28;101950.47;4997080;28;20057;-78
2022/07/05 11:24:30;;;;;;;2.55;1.35;;;;;;;27.02;33.31;101950.09;4991821;28;20408;-79
2022/07/05 11:27:00;;;;;;;3.92;0.90;;;;;;;26.71;33.90;101944.19;4995047;28;20037;-76
2022/07/05 11:29:44;;;;;;;3.83;1.20;;;;;;;26.87;33.53;101946.13;4994135;28;20539;-78
2022/07/05 11:32:22;;;;;;;2.08;1.13;;;;;;;27.12;34.16;101940.44;4997786;28;20197;-77